Time;durP1;ratioP1;P1;durP2;ratioP2;P2;SDS_P1;SDS_P2;PMS_P1;PMS_P2;Temp;Humidity;BMP_temperature;BMP_pressure;BME280_temperature;BME280_humidity;BME280_pressure;Samples;Min_cycle;Max_cycle;Signal;HPM_P1;HPM_P2
2022/04/04 00:00:20;;;;;;;10.02;7.43;;;5.60;56.30;;;;;;5073385;28;20052;-56
2022/04/04 00:02:46;;;;;;;9.32;6.72;;;5.60;56.60;;;;;;5073329;28;20023;-54
2022/04/04 00:05:12;;;;;;;10.80;7.45;;;5.60;56.80;;;;;;5055028;28;20025;-56
2022/04/04 00:07:38;;;;;;;9.82;7.53;;;5.60;56.80;;;;;;5073529;28;20405;-52
2022/04/04 00:10:04;;;;;;;12.65;7.38;;;5.60;57.30;;;;;;5072239;28;20045;-49
2022/04/04 00:12:31;;;;;;;10.90;7.63;;;5.50;57.40;;;;;;5073007;28;20025;-50
2022/04/04 00:14:56;;;;;;;9.02;6.90;;;5.40;57.70;;;;;;5072414;28;20016;-51
2022/04/04 00:17:24;;;;;;;9.35;7.22;;;5.40;57.90;;;;;;5072871;28;20021;-51
2022/04/04 00:19:49;;;;;;;9.35;7.53;;;5.50;58.00;;;;;;5072447;28;20028;-51
2022/04/04 00:22:15;;;;;;;11.43;7.57;;;5.50;58.00;;;;;;5055313;28;20031;-52
2022/04/04 00:24:41;;;;;;;10.50;7.95;;;5.50;58.00;;;;;;5054614;28;20469;-54
2022/04/04 00:27:07;;;;;;;10.93;7.20;;;5.50;57.90;;;;;;5037454;28;20063;-53
2022/04/04 00:29:32;;;;;;;12.93;7.60;;;5.50;58.00;;;;;;5054468;28;20365;-53
2022/04/04 00:31:58;;;;;;;9.88;7.68;;;5.50;58.30;;;;;;5071589;28;20473;-51
2022/04/04 00:34:24;;;;;;;11.00;7.85;;;5.50;58.10;;;;;;5054447;28;20251;-52
2022/04/04 00:36:49;;;;;;;10.20;7.70;;;5.40;58.40;;;;;;5053973;28;20334;-52
2022/04/04 00:39:19;;;;;;;12.40;8.00;;;5.30;58.70;;;;;;5072604;28;20433;-54
2022/04/04 00:41:48;;;;;;;15.00;8.32;;;5.30;59.00;;;;;;5072110;28;20032;-55
2022/04/04 00:44:14;;;;;;;11.30;8.30;;;5.30;59.00;;;;;;5072678;28;20082;-55
2022/04/04 00:46:41;;;;;;;10.13;7.55;;;5.20;59.30;;;;;;5072784;28;20039;-51
2022/04/04 00:49:08;;;;;;;11.77;6.95;;;5.20;59.40;;;;;;5071942;28;20586;-54
2022/04/04 00:51:34;;;;;;;10.35;7.38;;;5.20;59.70;;;;;;5072656;28;20035;-54
2022/04/04 00:54:01;;;;;;;13.02;8.10;;;5.10;59.80;;;;;;5071775;28;20468;-53
2022/04/04 00:56:27;;;;;;;10.52;8.10;;;5.20;59.90;;;;;;5072329;28;20461;-53
2022/04/04 00:58:53;;;;;;;12.75;8.13;;;5.20;59.80;;;;;;5071575;28;20017;-52
2022/04/04 01:01:21;;;;;;;10.63;7.45;;;5.20;59.80;;;;;;5072331;28;20046;-48
2022/04/04 01:03:47;;;;;;;10.73;8.05;;;5.20;59.90;;;;;;5072034;28;20156;-53
2022/04/04 01:06:13;;;;;;;9.65;7.57;;;5.20;60.00;;;;;;5038089;28;20445;-49
2022/04/04 01:08:39;;;;;;;11.07;8.02;;;5.20;60.00;;;;;;5054351;28;20469;-53
2022/04/04 01:11:05;;;;;;;10.73;7.68;;;5.20;59.90;;;;;;5053716;28;20031;-48
2022/04/04 01:13:31;;;;;;;10.70;8.60;;;5.20;60.00;;;;;;5054326;28;20028;-50
2022/04/04 01:15:57;;;;;;;12.50;8.10;;;5.20;60.10;;;;;;5053872;28;20032;-52
2022/04/04 01:18:23;;;;;;;12.38;8.52;;;5.20;60.20;;;;;;5072121;28;20027;-50
2022/04/04 01:20:50;;;;;;;13.80;8.82;;;5.10;60.40;;;;;;5053744;28;20025;-48
2022/04/04 01:23:22;;;;;;;11.25;8.63;;;5.20;60.70;;;;;;5053878;28;20021;-49
2022/04/04 01:25:47;;;;;;;12.63;8.90;;;5.10;60.70;;;;;;5071644;28;20103;-49
2022/04/04 01:28:13;;;;;;;11.15;8.90;;;5.10;61.10;;;;;;5071621;28;20096;-54
2022/04/04 01:30:39;;;;;;;10.68;9.02;;;5.10;61.30;;;;;;5053398;28;20074;-54
2022/04/04 01:33:04;;;;;;;14.02;9.65;;;5.00;61.50;;;;;;5071357;28;20086;-51
2022/04/04 01:35:30;;;;;;;11.13;9.32;;;5.00;61.70;;;;;;5054026;28;20097;-51
2022/04/04 01:37:56;;;;;;;11.63;9.48;;;5.10;62.00;;;;;;5071792;28;20342;-51
2022/04/04 01:40:22;;;;;;;10.68;8.95;;;5.10;62.00;;;;;;5071983;28;20016;-52
2022/04/04 01:42:50;;;;;;;12.40;9.15;;;5.10;62.20;;;;;;5071420;28;20416;-51
2022/04/04 01:45:16;;;;;;;13.63;10.35;;;5.10;62.40;;;;;;5053505;28;20017;-51
2022/04/04 01:47:42;;;;;;;12.52;10.20;;;5.00;62.70;;;;;;5053789;28;20268;-52
2022/04/04 01:50:08;;;;;;;14.07;11.15;;;5.00;62.90;;;;;;5071004;28;20056;-50
2022/04/04 01:52:34;;;;;;;15.30;10.68;;;4.90;63.10;;;;;;5071635;28;20032;-49
2022/04/04 01:54:59;;;;;;;12.07;9.40;;;4.90;63.30;;;;;;5070970;28;20409;-52
2022/04/04 01:57:25;;;;;;;14.60;10.27;;;4.90;63.10;;;;;;5053211;28;20142;-55
2022/04/04 01:59:51;;;;;;;13.70;10.52;;;4.90;63.40;;;;;;5049594;28;20071;-52
2022/04/04 02:02:16;;;;;;;13.80;10.63;;;4.90;63.40;;;;;;5050243;28;20114;-54
2022/04/04 02:04:42;;;;;;;14.18;10.57;;;4.90;63.60;;;;;;5051496;28;20021;-53
2022/04/04 02:07:08;;;;;;;14.95;10.27;;;4.80;63.80;;;;;;5049774;28;20183;-52
2022/04/04 02:09:34;;;;;;;13.75;10.85;;;4.80;64.00;;;;;;5050197;28;20147;-51
2022/04/04 02:12:00;;;;;;;14.20;10.80;;;4.80;64.30;;;;;;5050907;28;20031;-53
2022/04/04 02:14:26;;;;;;;13.20;10.48;;;4.70;64.40;;;;;;5051294;28;20112;-49
2022/04/04 02:16:51;;;;;;;14.32;10.57;;;4.70;64.40;;;;;;5049331;28;20454;-52
2022/04/04 02:19:17;;;;;;;16.85;11.50;;;4.70;64.50;;;;;;5050950;28;20028;-51
2022/04/04 02:21:45;;;;;;;14.93;10.70;;;4.70;64.80;;;;;;5051317;28;20096;-51
2022/04/04 02:24:11;;;;;;;14.93;11.13;;;4.70;64.80;;;;;;5051232;28;20440;-48
2022/04/04 02:26:37;;;;;;;12.95;10.00;;;4.70;64.70;;;;;;5051044;28;20381;-51
2022/04/04 02:29:03;;;;;;;13.82;10.68;;;4.70;64.70;;;;;;5050513;28;20472;-50
2022/04/04 02:31:29;;;;;;;14.73;10.90;;;4.70;64.80;;;;;;5050951;28;20025;-50
2022/04/04 02:33:55;;;;;;;12.48;10.07;;;4.70;64.80;;;;;;5050879;28;20028;-49
2022/04/04 02:36:21;;;;;;;16.23;10.88;;;4.70;64.80;;;;;;5049973;28;20024;-49
2022/04/04 02:38:47;;;;;;;14.63;11.48;;;4.70;65.00;;;;;;5049423;28;20035;-50
2022/04/04 02:41:13;;;;;;;15.07;10.70;;;4.70;65.00;;;;;;5052377;28;20031;-49
2022/04/04 02:43:39;;;;;;;14.57;10.63;;;4.70;65.00;;;;;;5055502;28;20485;-51
2022/04/04 02:46:05;;;;;;;15.52;10.90;;;4.70;65.20;;;;;;5054407;28;20056;-49
2022/04/04 02:48:32;;;;;;;17.95;11.45;;;4.60;65.10;;;;;;5054959;28;20088;-52
2022/04/04 02:50:58;;;;;;;14.57;10.88;;;4.60;65.20;;;;;;5054519;28;20017;-52
2022/04/04 02:53:23;;;;;;;13.25;9.82;;;4.60;65.30;;;;;;5053695;28;20055;-53
2022/04/04 02:58:34;;;;;;;16.20;11.30;;;4.60;65.40;;;;;;5054793;28;20071;-50
2022/04/04 03:01:00;;;;;;;15.30;11.85;;;4.50;65.70;;;;;;5052616;28;20398;-55
2022/04/04 03:03:26;;;;;;;15.20;10.75;;;4.50;65.80;;;;;;5053506;28;20032;-49
2022/04/04 03:05:51;;;;;;;13.00;10.90;;;4.50;65.80;;;;;;5054199;28;20377;-52
2022/04/04 03:08:17;;;;;;;15.13;10.90;;;4.50;65.90;;;;;;5054323;28;20469;-49
2022/04/04 03:10:43;;;;;;;12.68;10.32;;;4.50;65.80;;;;;;5054677;28;20028;-49
2022/04/04 03:13:09;;;;;;;14.20;10.48;;;4.50;65.80;;;;;;5054172;28;20112;-48
2022/04/04 03:15:35;;;;;;;18.10;10.60;;;4.40;65.80;;;;;;5054279;28;20110;-49
2022/04/04 03:18:03;;;;;;;14.10;11.13;;;4.40;65.90;;;;;;5052773;28;20021;-49
2022/04/04 03:20:30;;;;;;;17.45;10.85;;;4.40;66.10;;;;;;5054209;28;20021;-50
2022/04/04 03:22:57;;;;;;;16.65;11.02;;;4.30;66.20;;;;;;5052398;28;20029;-49
2022/04/04 03:25:23;;;;;;;15.70;10.02;;;4.30;66.30;;;;;;5053765;28;20025;-59
2022/04/04 03:27:50;;;;;;;15.00;10.00;;;4.30;66.20;;;;;;5051970;28;20090;-49
2022/04/04 03:30:18;;;;;;;16.95;10.43;;;4.30;66.30;;;;;;5054268;28;20019;-53
2022/04/04 03:32:47;;;;;;;16.60;10.30;;;4.30;66.20;;;;;;5053958;28;20052;-52
2022/04/04 03:35:17;;;;;;;12.80;10.15;;;4.30;66.50;;;;;;5052951;28;20068;-52
2022/04/04 03:37:48;;;;;;;15.45;10.57;;;4.30;66.40;;;;;;5053849;28;20079;-51
2022/04/04 03:40:16;;;;;;;12.13;10.00;;;4.20;67.00;;;;;;5052940;28;20064;-55
2022/04/04 03:42:43;;;;;;;16.55;10.23;;;4.20;66.60;;;;;;5053874;28;20107;-53
2022/04/04 03:45:11;;;;;;;14.68;10.10;;;4.10;66.50;;;;;;5052993;28;20026;-54
2022/04/04 03:47:37;;;;;;;16.00;10.27;;;4.20;66.50;;;;;;5051983;28;20522;-50
2022/04/04 03:50:05;;;;;;;12.05;9.40;;;4.10;66.50;;;;;;5053250;28;20029;-52
2022/04/04 03:52:30;;;;;;;15.68;10.15;;;4.10;66.50;;;;;;5051424;28;20080;-55
2022/04/04 03:54:56;;;;;;;14.98;10.50;;;4.20;66.50;;;;;;5052780;28;20033;-55
2022/04/04 03:57:22;;;;;;;13.95;9.88;;;4.10;66.40;;;;;;5053564;28;20475;-51
2022/04/04 03:59:48;;;;;;;14.82;9.82;;;4.10;66.50;;;;;;5051496;28;20045;-55
2022/04/04 04:02:14;;;;;;;15.90;10.15;;;4.10;66.40;;;;;;5035581;28;20052;-59
2022/04/04 04:04:39;;;;;;;13.10;9.55;;;4.10;66.30;;;;;;5053457;28;20031;-51
2022/04/04 04:07:09;;;;;;;12.20;9.15;;;4.10;66.30;;;;;;5052671;28;20221;-51
2022/04/04 04:09:35;;;;;;;16.20;9.13;;;4.10;66.30;;;;;;5053097;28;20064;-50
2022/04/04 04:12:01;;;;;;;14.55;9.77;;;4.10;66.30;;;;;;5051807;28;20063;-52
2022/04/04 04:14:26;;;;;;;14.30;9.60;;;4.10;66.10;;;;;;5053468;28;20033;-51
2022/04/04 04:16:52;;;;;;;12.05;9.20;;;4.10;66.10;;;;;;5050749;28;20021;-50
2022/04/04 04:22:03;;;;;;;;;;;4.10;66.00;;;;;;5052935;28;20489;-52
2022/04/04 04:24:28;;;;;;;13.77;9.40;;;4.10;66.00;;;;;;5053145;28;19905;-50
2022/04/04 04:26:54;;;;;;;19.25;9.70;;;4.20;65.80;;;;;;5051221;28;20036;-51
2022/04/04 04:29:20;;;;;;;14.23;8.93;;;4.10;65.60;;;;;;5052822;28;20029;-56
2022/04/04 04:31:46;;;;;;;14.55;9.43;;;4.10;65.70;;;;;;5052811;28;20051;-57
2022/04/04 04:34:12;;;;;;;14.27;9.65;;;4.10;65.50;;;;;;5052764;28;20033;-49
2022/04/04 04:36:39;;;;;;;16.02;9.70;;;4.10;65.40;;;;;;5051452;28;20036;-49
2022/04/04 04:39:08;;;;;;;14.43;9.68;;;4.10;65.30;;;;;;5052288;28;20040;-54
2022/04/04 04:41:34;;;;;;;16.45;9.73;;;4.10;65.20;;;;;;5052707;28;20055;-52
2022/04/04 04:44:03;;;;;;;13.55;10.45;;;4.10;65.10;;;;;;5052322;28;20048;-54
2022/04/04 04:46:30;;;;;;;14.82;9.57;;;4.10;65.00;;;;;;5052542;28;20030;-53
2022/04/04 04:48:56;;;;;;;11.60;8.88;;;4.20;65.00;;;;;;5050812;28;20481;-54
2022/04/04 04:51:21;;;;;;;16.92;9.25;;;4.20;64.70;;;;;;5052484;28;20086;-52
2022/04/04 04:53:47;;;;;;;11.52;8.55;;;4.20;64.50;;;;;;5052404;28;20033;-50
2022/04/04 04:56:13;;;;;;;14.98;9.27;;;4.30;64.50;;;;;;5052185;28;20041;-54
2022/04/04 04:58:39;;;;;;;16.17;9.90;;;4.30;64.40;;;;;;5051327;28;20520;-52
2022/04/04 05:01:05;;;;;;;12.98;9.32;;;4.30;64.30;;;;;;5071572;28;20045;-53
2022/04/04 05:03:31;;;;;;;17.95;10.10;;;4.30;64.10;;;;;;5072665;28;20029;-53
2022/04/04 05:05:56;;;;;;;12.82;9.60;;;4.30;63.90;;;;;;5071110;28;20449;-51
2022/04/04 05:08:23;;;;;;;11.68;9.02;;;4.40;63.80;;;;;;5072484;28;20025;-55
2022/04/04 05:10:48;;;;;;;16.50;9.60;;;4.40;63.80;;;;;;5073355;28;20050;-57
2022/04/04 05:13:14;;;;;;;13.07;9.90;;;4.40;63.50;;;;;;5072266;28;20036;-56
2022/04/04 05:15:41;;;;;;;15.93;9.90;;;4.40;63.40;;;;;;5054457;28;20029;-54
2022/04/04 05:18:07;;;;;;;13.07;9.48;;;4.50;63.30;;;;;;5071468;28;20094;-56
2022/04/04 05:20:32;;;;;;;16.13;9.80;;;4.40;63.20;;;;;;5053997;28;20457;-55
2022/04/04 05:25:42;;;;;;;15.73;9.32;;;4.50;63.00;;;;;;5072232;28;20044;-53
2022/04/04 05:28:10;;;;;;;12.63;8.40;;;4.60;62.90;;;;;;5070912;28;20112;-53
2022/04/04 05:30:36;;;;;;;17.75;10.05;;;4.60;62.70;;;;;;5054084;28;20020;-54
2022/04/04 05:33:02;;;;;;;11.70;9.27;;;4.60;62.40;;;;;;5053080;28;20119;-54
2022/04/04 05:35:28;;;;;;;16.02;9.45;;;4.60;62.10;;;;;;5036880;28;20028;-54
2022/04/04 05:37:56;;;;;;;14.18;9.63;;;4.70;61.90;;;;;;5053440;28;20090;-56
2022/04/04 05:40:25;;;;;;;15.30;9.10;;;4.70;61.70;;;;;;5072302;28;20028;-57
2022/04/04 05:42:52;;;;;;;14.23;9.43;;;4.80;61.50;;;;;;5071148;28;20028;-54
2022/04/04 05:45:18;;;;;;;13.40;9.48;;;4.80;61.10;;;;;;5053761;28;20025;-58
2022/04/04 05:47:44;;;;;;;12.05;9.15;;;4.80;61.00;;;;;;5071620;28;20030;-56
2022/04/04 05:50:10;;;;;;;15.07;9.60;;;4.80;60.70;;;;;;5070696;28;20245;-57
2022/04/04 05:52:36;;;;;;;17.65;9.18;;;4.80;60.80;;;;;;5053689;28;20032;-66
2022/04/04 05:55:03;;;;;;;16.20;10.05;;;4.90;60.60;;;;;;5037165;28;20028;-58
2022/04/04 05:57:38;;;;;;;14.35;8.98;;;5.00;60.30;;;;;;5053616;28;20118;-54
2022/04/04 06:00:10;;;;;;;17.50;9.70;;;5.00;59.50;;;;;;5071390;28;20131;-58
2022/04/04 06:02:37;;;;;;;13.85;9.20;;;5.00;59.60;;;;;;5071608;28;20025;-58
2022/04/04 06:05:05;;;;;;;13.82;9.20;;;5.10;59.40;;;;;;5070882;28;20094;-58
2022/04/04 06:07:31;;;;;;;16.10;9.32;;;5.20;59.30;;;;;;5071813;28;20104;-58
2022/04/04 06:09:56;;;;;;;15.05;8.80;;;5.20;58.90;;;;;;5071343;28;20027;-58
2022/04/04 06:12:23;;;;;;;15.57;9.20;;;5.30;58.70;;;;;;5053224;28;20032;-55
2022/04/04 06:14:49;;;;;;;15.02;8.93;;;5.30;58.10;;;;;;5053645;28;20028;-57
2022/04/04 06:17:15;;;;;;;16.27;9.35;;;5.30;58.00;;;;;;5070553;28;20100;-57
2022/04/04 06:19:43;;;;;;;16.08;10.52;;;5.40;58.10;;;;;;5053206;28;20055;-55
2022/04/04 06:22:10;;;;;;;12.50;9.00;;;5.50;57.80;;;;;;5053179;28;20112;-57
2022/04/04 06:24:36;;;;;;;15.15;9.05;;;5.60;57.60;;;;;;5071300;28;20070;-54
2022/04/04 06:29:47;;;;;;;13.82;8.50;;;5.60;56.90;;;;;;5070867;28;20174;-56
2022/04/04 06:32:13;;;;;;;14.10;9.25;;;5.80;56.50;;;;;;5051882;28;20028;-57
2022/04/04 06:34:38;;;;;;;12.65;8.30;;;5.80;56.10;;;;;;5071346;28;20035;-54
2022/04/04 06:37:04;;;;;;;13.80;8.20;;;5.70;55.50;;;;;;5052625;28;20064;-57
2022/04/04 06:39:31;;;;;;;11.38;8.45;;;5.70;55.20;;;;;;5071525;28;20025;-57
2022/04/04 06:41:57;;;;;;;17.80;9.68;;;5.70;55.20;;;;;;5069871;28;20028;-58
2022/04/04 06:44:23;;;;;;;12.20;8.40;;;5.80;55.20;;;;;;5052816;28;20028;-55
2022/04/04 06:46:49;;;;;;;13.45;8.13;;;5.90;55.10;;;;;;5053165;28;20051;-60
2022/04/04 06:49:15;;;;;;;15.85;7.95;;;6.00;54.80;;;;;;5070362;28;20261;-55
2022/04/04 06:51:42;;;;;;;14.63;8.60;;;6.00;54.30;;;;;;5053197;28;20134;-57
2022/04/04 06:54:07;;;;;;;11.70;8.55;;;6.10;54.10;;;;;;5070590;28;20056;-58
2022/04/04 06:56:37;;;;;;;15.13;7.70;;;6.10;53.50;;;;;;5070621;28;20482;-57
2022/04/04 06:59:03;;;;;;;12.38;8.05;;;6.20;53.00;;;;;;5068031;28;20028;-59
2022/04/04 07:01:31;;;;;;;11.55;7.80;;;6.20;52.90;;;;;;5052726;28;20476;-58
2022/04/04 07:03:58;;;;;;;10.43;7.20;;;6.30;52.60;;;;;;5070551;28;20031;-62
2022/04/04 07:06:25;;;;;;;7.60;6.25;;;6.40;51.50;;;;;;5053165;28;20457;-62
2022/04/04 07:08:51;;;;;;;9.90;7.30;;;6.40;51.20;;;;;;5050479;28;20031;-60
2022/04/04 07:11:16;;;;;;;14.65;7.78;;;6.50;51.10;;;;;;5050353;28;20111;-62
2022/04/04 07:13:44;;;;;;;9.55;6.88;;;6.70;51.00;;;;;;5052123;28;20366;-61
2022/04/04 07:16:10;;;;;;;10.68;7.15;;;6.80;50.70;;;;;;5053036;28;20096;-58
2022/04/04 07:18:36;;;;;;;14.50;7.80;;;7.00;50.70;;;;;;5070444;28;20029;-59
2022/04/04 07:21:02;;;;;;;12.00;7.68;;;7.10;49.60;;;;;;5070479;28;20466;-61
2022/04/04 07:23:27;;;;;;;10.85;7.18;;;7.60;49.10;;;;;;5069503;28;20033;-57
2022/04/04 07:25:53;;;;;;;9.25;7.40;;;10.80;45.20;;;;;;5070243;28;20025;-63
2022/04/04 07:28:21;;;;;;;10.10;7.53;;;14.20;41.50;;;;;;5069587;28;20107;-59
2022/04/04 07:30:47;;;;;;;9.77;7.05;;;16.90;35.20;;;;;;5074531;28;20021;-57
2022/04/04 07:33:18;;;;;;;8.13;7.03;;;19.30;31.70;;;;;;5073305;28;20065;-61
2022/04/04 07:35:45;;;;;;;13.60;9.70;;;21.30;28.80;;;;;;5074674;28;20025;-57
2022/04/04 07:38:11;;;;;;;9.32;7.60;;;22.70;26.60;;;;;;5073146;28;20104;-61
2022/04/04 07:40:37;;;;;;;8.95;6.30;;;24.20;26.00;;;;;;5073593;28;20616;-61
2022/04/04 07:43:05;;;;;;;9.45;7.10;;;25.20;24.00;;;;;;5073356;28;20469;-57
2022/04/04 07:45:31;;;;;;;10.65;6.82;;;26.80;24.60;;;;;;5055985;28;20047;-60
2022/04/04 07:47:58;;;;;;;6.05;5.40;;;28.40;23.30;;;;;;5055438;28;20103;-59
2022/04/04 07:50:24;;;;;;;7.07;5.65;;;29.60;22.20;;;;;;5074134;28;20029;-55
2022/04/04 07:52:50;;;;;;;11.52;5.72;;;29.90;20.90;;;;;;5055373;28;20043;-55
2022/04/04 07:55:16;;;;;;;7.65;5.75;;;29.70;20.40;;;;;;5056102;28;20135;-57
2022/04/04 07:57:42;;;;;;;7.63;4.82;;;29.50;20.80;;;;;;5073601;28;20075;-62
2022/04/04 08:00:17;;;;;;;8.70;5.78;;;29.30;20.50;;;;;;5072560;28;20045;-61
2022/04/04 08:02:44;;;;;;;11.65;5.82;;;30.20;20.60;;;;;;5073684;28;20059;-61
2022/04/04 08:05:10;;;;;;;10.23;6.28;;;31.60;20.10;;;;;;5072565;28;20032;-61
2022/04/04 08:07:37;;;;;;;5.82;5.05;;;31.90;19.00;;;;;;5073400;28;20058;-60
2022/04/04 08:10:04;;;;;;;12.70;4.95;;;31.80;19.10;;;;;;5072723;28;20025;-58
2022/04/04 08:12:30;;;;;;;7.30;4.20;;;32.20;19.20;;;;;;5073893;28;20039;-59
2022/04/04 08:14:56;;;;;;;6.57;4.03;;;33.10;19.00;;;;;;5054821;28;20037;-60
2022/04/04 08:17:23;;;;;;;7.97;5.05;;;33.20;18.40;;;;;;5038083;28;20039;-58
2022/04/04 08:19:50;;;;;;;6.05;4.32;;;33.80;18.60;;;;;;5071668;28;20052;-59
2022/04/04 08:22:19;;;;;;;4.97;4.07;;;34.10;18.60;;;;;;5054337;28;20529;-58
2022/04/04 08:24:45;;;;;;;5.00;4.50;;;34.20;18.60;;;;;;5073321;28;20028;-61
2022/04/04 08:27:11;;;;;;;7.82;4.65;;;34.10;17.90;;;;;;5072598;28;20050;-63
2022/04/04 08:29:37;;;;;;;4.68;3.90;;;33.40;17.80;;;;;;5054020;28;20046;-59
2022/04/04 08:32:04;;;;;;;7.47;4.95;;;33.10;17.80;;;;;;5071227;28;20407;-62
2022/04/04 08:34:30;;;;;;;7.55;4.53;;;33.10;17.70;;;;;;5071939;28;20166;-56
2022/04/04 08:36:56;;;;;;;13.50;7.60;;;32.70;17.20;;;;;;5071938;28;20107;-61
2022/04/04 08:39:21;;;;;;;6.63;4.25;;;31.20;17.40;;;;;;5052874;28;20233;-59
2022/04/04 08:41:47;;;;;;;7.28;4.55;;;30.40;17.80;;;;;;5054787;28;20451;-54
2022/04/04 08:44:15;;;;;;;9.00;4.93;;;30.20;17.60;;;;;;5053708;28;20065;-60
2022/04/04 08:46:43;;;;;;;6.18;4.25;;;29.60;17.90;;;;;;5054377;28;20498;-56
2022/04/04 08:49:09;;;;;;;7.60;4.25;;;28.90;17.80;;;;;;5053191;28;20024;-58
2022/04/04 08:51:35;;;;;;;6.82;4.20;;;26.60;17.90;;;;;;5053796;28;20031;-57
2022/04/04 08:54:02;;;;;;;9.07;4.40;;;23.80;18.90;;;;;;5054101;28;20682;-62
2022/04/04 08:56:28;;;;;;;7.00;4.25;;;21.30;20.40;;;;;;5054209;28;20028;-58
2022/04/04 08:58:55;;;;;;;6.28;4.35;;;19.40;21.80;;;;;;5069061;28;20039;-58
2022/04/04 09:01:23;;;;;;;9.52;4.93;;;18.00;23.00;;;;;;5061767;28;20017;-62
2022/04/04 09:04:12;;;;;;;7.30;4.55;;;16.40;24.10;;;;;;5043671;28;20121;-61
2022/04/04 09:06:56;;;;;;;8.13;4.38;;;15.60;25.00;;;;;;5061115;28;20029;-60
2022/04/04 09:09:25;;;;;;;12.93;4.82;;;14.70;26.10;;;;;;5060271;28;20021;-61
2022/04/04 09:11:53;;;;;;;6.65;5.18;;;14.10;26.40;;;;;;5045036;28;20094;-57
2022/04/04 09:14:23;;;;;;;10.15;4.90;;;13.60;26.90;;;;;;5070994;28;20154;-64
2022/04/04 09:16:55;;;;;;;6.32;4.63;;;13.40;28.00;;;;;;5045520;28;20025;-55
2022/04/04 09:19:31;;;;;;;5.70;4.40;;;13.00;28.00;;;;;;5051718;28;20017;-55
2022/04/04 09:22:04;;;;;;;10.48;4.78;;;12.70;28.30;;;;;;5070538;28;20036;-56
2022/04/04 09:24:49;;;;;;;6.72;4.45;;;12.60;28.50;;;;;;5067888;28;20024;-61
2022/04/04 09:27:36;;;;;;;6.00;4.63;;;12.40;28.60;;;;;;5064538;28;20025;-61
2022/04/04 09:30:07;;;;;;;8.00;5.07;;;12.20;29.00;;;;;;5048859;28;20033;-63
2022/04/04 09:32:49;;;;;;;6.22;4.47;;;11.90;29.50;;;;;;5052663;28;20519;-59
2022/04/04 09:35:18;;;;;;;6.65;4.95;;;11.60;29.90;;;;;;5066092;28;20056;-59
2022/04/04 09:37:48;;;;;;;17.45;5.45;;;11.40;29.90;;;;;;5072616;28;20366;-58
2022/04/04 09:40:19;;;;;;;5.57;4.22;;;11.40;30.10;;;;;;5052071;28;20107;-54
2022/04/04 09:42:51;;;;;;;8.65;5.10;;;11.40;29.90;;;;;;5070791;28;20021;-55
2022/04/04 09:45:18;;;;;;;8.18;4.78;;;11.20;30.50;;;;;;5070413;28;20461;-55
2022/04/04 09:47:48;;;;;;;6.53;4.68;;;10.90;30.50;;;;;;5071460;28;20031;-56
2022/04/04 09:50:37;;;;;;;7.55;5.13;;;10.70;30.70;;;;;;5052192;28;20028;-56
2022/04/04 09:53:05;;;;;;;11.52;5.72;;;10.60;31.50;;;;;;5053072;28;20025;-56
2022/04/04 09:55:34;;;;;;;13.00;5.75;;;10.50;31.60;;;;;;5071045;28;20056;-54
2022/04/04 09:58:06;;;;;;;9.13;5.15;;;10.60;31.50;;;;;;5053270;28;20047;-54
2022/04/04 10:00:34;;;;;;;9.23;5.18;;;10.70;31.70;;;;;;5070816;28;20048;-57
2022/04/04 10:03:02;;;;;;;6.88;5.35;;;10.70;31.50;;;;;;5071716;28;20107;-56
2022/04/04 10:05:28;;;;;;;8.27;5.55;;;10.80;31.50;;;;;;5070624;28;20478;-54
2022/04/04 10:07:56;;;;;;;6.75;5.15;;;11.00;31.40;;;;;;5053011;28;20027;-55
2022/04/04 10:10:27;;;;;;;6.78;4.97;;;11.10;31.00;;;;;;5069360;28;20024;-53
2022/04/04 10:12:54;;;;;;;8.27;5.30;;;11.30;30.90;;;;;;5051295;28;20055;-56
2022/04/04 10:15:21;;;;;;;5.22;4.40;;;11.30;30.90;;;;;;5070571;28;20032;-57
2022/04/04 10:17:48;;;;;;;7.07;5.03;;;11.40;30.90;;;;;;5070401;28;20078;-54
2022/04/04 10:20:14;;;;;;;5.82;4.80;;;11.60;30.90;;;;;;5069196;28;20032;-56
2022/04/04 10:22:40;;;;;;;6.60;5.40;;;11.60;30.70;;;;;;5070081;28;20024;-59
2022/04/04 10:25:07;;;;;;;9.05;5.25;;;11.70;30.50;;;;;;5071295;28;20025;-52
2022/04/04 10:27:36;;;;;;;6.97;4.63;;;11.90;30.60;;;;;;5070518;28;20025;-53
2022/04/04 10:30:04;;;;;;;7.15;4.50;;;12.00;30.00;;;;;;5070027;28;20492;-55
2022/04/04 10:32:31;;;;;;;6.35;4.40;;;11.90;30.00;;;;;;5051069;28;20119;-56
2022/04/04 10:34:57;;;;;;;6.90;4.60;;;11.80;30.10;;;;;;5051997;28;20121;-53
2022/04/04 10:37:28;;;;;;;5.65;4.15;;;11.90;30.20;;;;;;5052198;28;20028;-53
2022/04/04 10:39:55;;;;;;;11.80;5.75;;;12.00;30.30;;;;;;5069794;28;20218;-53
2022/04/04 10:42:28;;;;;;;9.75;4.50;;;12.10;30.20;;;;;;5050695;28;20051;-57
2022/04/04 10:44:59;;;;;;;7.60;5.28;;;12.10;30.00;;;;;;5069514;28;20115;-55
2022/04/04 10:47:26;;;;;;;5.65;4.55;;;12.20;30.00;;;;;;5051478;28;20060;-59
2022/04/04 10:50:14;;;;;;;6.07;4.75;;;12.20;30.00;;;;;;5069738;28;20151;-56
2022/04/04 10:52:42;;;;;;;5.70;4.18;;;12.40;30.00;;;;;;5069403;28;20419;-55
2022/04/04 10:55:27;;;;;;;6.45;3.75;;;12.30;29.80;;;;;;5051432;28;20100;-57
2022/04/04 10:58:15;;;;;;;7.95;4.85;;;12.20;29.70;;;;;;5068703;28;20039;-57
2022/04/04 11:01:02;;;;;;;7.55;4.85;;;12.00;30.00;;;;;;5049777;28;20489;-57
2022/04/04 11:03:32;;;;;;;10.45;6.03;;;12.20;30.00;;;;;;5053952;28;20028;-52
2022/04/04 11:09:00;;;;;;;7.68;4.70;;;12.30;30.00;;;;;;5072375;28;20441;-60
2022/04/04 11:11:48;;;;;;;7.10;4.72;;;12.10;30.00;;;;;;5073425;28;20047;-61
2022/04/04 11:14:15;;;;;;;6.10;4.80;;;12.20;30.00;;;;;;5054988;28;20028;-62
2022/04/04 11:17:06;;;;;;;8.15;5.72;;;12.20;30.00;;;;;;5055207;28;20401;-59
2022/04/04 11:19:45;;;;;;;7.80;5.05;;;12.20;30.10;;;;;;5045772;28;20063;-59
2022/04/04 11:22:17;;;;;;;7.10;4.75;;;12.10;30.00;;;;;;5073233;28;20086;-60
2022/04/04 11:24:48;;;;;;;6.30;4.72;;;12.10;30.00;;;;;;5073923;28;20417;-57
2022/04/04 11:27:13;;;;;;;6.50;4.28;;;12.10;30.20;;;;;;5073341;28;20156;-58
2022/04/04 11:29:40;;;;;;;7.68;5.15;;;12.00;30.30;;;;;;5073739;28;20021;-59
2022/04/04 11:32:08;;;;;;;8.30;5.22;;;11.80;30.50;;;;;;5055250;28;20033;-66
2022/04/04 11:34:36;;;;;;;8.35;5.40;;;11.80;30.50;;;;;;5073598;28;20029;-58
2022/04/04 11:37:04;;;;;;;6.93;4.88;;;11.90;30.80;;;;;;5055943;28;20117;-54
2022/04/04 11:39:30;;;;;;;7.65;4.70;;;11.90;30.90;;;;;;5055572;28;20062;-58
2022/04/04 11:41:56;;;;;;;6.82;4.45;;;12.00;30.70;;;;;;5073954;28;20480;-57
2022/04/04 11:44:34;;;;;;;7.57;4.38;;;11.90;30.70;;;;;;5073511;28;20033;-63
2022/04/04 11:47:09;;;;;;;6.57;4.80;;;12.00;30.80;;;;;;5074043;28;20366;-57
2022/04/04 11:49:37;;;;;;;6.68;4.90;;;12.10;30.50;;;;;;5073965;28;20127;-58
2022/04/04 11:52:06;;;;;;;5.50;4.20;;;12.00;30.50;;;;;;5055772;28;20120;-55
2022/04/04 11:54:58;;;;;;;5.07;4.15;;;12.00;30.60;;;;;;5055812;28;20029;-60
2022/04/04 11:57:24;;;;;;;6.18;4.53;;;12.00;30.60;;;;;;5069512;28;20115;-58
2022/04/04 11:59:50;;;;;;;6.93;4.13;;;12.20;30.70;;;;;;5073590;28;20528;-60
2022/04/04 12:02:22;;;;;;;5.35;4.40;;;12.20;30.30;;;;;;5055770;28;20385;-57
2022/04/04 12:04:49;;;;;;;8.45;5.35;;;12.20;30.50;;;;;;5074038;28;20028;-58
2022/04/04 12:07:16;;;;;;;9.50;4.38;;;12.40;30.30;;;;;;5073847;28;20457;-58
2022/04/04 12:09:42;;;;;;;5.88;4.93;;;12.50;30.20;;;;;;5074370;28;20024;-57
2022/04/04 12:12:12;;;;;;;5.07;3.97;;;12.40;30.00;;;;;;5055497;28;20028;-60
2022/04/04 12:14:41;;;;;;;7.32;4.00;;;12.40;30.20;;;;;;5073703;28;20032;-58
2022/04/04 12:17:09;;;;;;;6.60;4.28;;;12.60;30.00;;;;;;5073754;28;20055;-64
2022/04/04 12:19:50;;;;;;;7.80;5.35;;;12.70;29.90;;;;;;5073546;28;20489;-57
2022/04/04 12:25:01;;;;;;;10.88;4.60;;;13.00;29.90;;;;;;5073500;28;20086;-58
2022/04/04 12:27:28;;;;;;;5.72;4.40;;;13.20;29.50;;;;;;5072968;28;20323;-59
2022/04/04 12:29:59;;;;;;;4.50;3.92;;;13.30;29.60;;;;;;5073495;28;20032;-59
2022/04/04 12:32:26;;;;;;;5.63;4.38;;;13.30;29.30;;;;;;5072767;28;20028;-59
2022/04/04 12:34:54;;;;;;;10.48;4.53;;;13.20;29.30;;;;;;5073509;28;20029;-58
2022/04/04 12:37:20;;;;;;;7.32;4.63;;;13.00;29.60;;;;;;5073237;28;20025;-60
2022/04/04 12:39:49;;;;;;;6.88;4.50;;;13.20;29.70;;;;;;5055627;28;20440;-58
2022/04/04 12:42:15;;;;;;;4.43;3.85;;;13.20;29.50;;;;;;5072587;28;20062;-57
2022/04/04 12:44:41;;;;;;;6.65;4.57;;;13.20;29.70;;;;;;5055358;28;20024;-54
2022/04/04 12:47:12;;;;;;;5.03;4.50;;;13.20;29.90;;;;;;5073290;28;20021;-57
2022/04/04 12:49:39;;;;;;;5.97;4.20;;;13.10;29.80;;;;;;5073260;28;20094;-57
2022/04/04 12:52:07;;;;;;;6.53;4.50;;;13.00;29.80;;;;;;5073136;28;20499;-58
2022/04/04 12:54:34;;;;;;;7.20;4.18;;;12.90;30.00;;;;;;5054557;28;20477;-61
2022/04/04 12:57:03;;;;;;;6.90;4.13;;;12.90;30.10;;;;;;5073155;28;20056;-58
2022/04/04 12:59:30;;;;;;;4.88;4.15;;;12.90;30.10;;;;;;5072304;28;20493;-57
2022/04/04 13:02:06;;;;;;;5.70;4.28;;;12.90;30.10;;;;;;5054867;28;20483;-57
2022/04/04 13:04:32;;;;;;;5.85;3.88;;;13.00;30.10;;;;;;5054040;28;20028;-57